Observation data for Seymour on 12/09/2018      Previous  Date       Current Mesonet Observations  Soil Data  Daily Summary Page  Observations in Plain Language
KSE1 090600Z 29006KT M00/M02 A3032 RMK A01 T10041015  RH  093%=      5-min Rain = 0
KSE1 090605Z 29006KT M01/M02 A3032 RMK A01 T10051016  RH  093%=      5-min Rain = 0
KSE1 090610Z 29007KT M01/M02 A3032 RMK A01 T10061017  RH  093%=      5-min Rain = 0
KSE1 090615Z 29006KT M01/M02 A3032 RMK A01 T10071018  RH  093%=      5-min Rain = 0
KSE1 090620Z 29006KT M01/M02 A3032 RMK A01 T10081018  RH  094%=      5-min Rain = 0
KSE1 090625Z 29007KT M01/M02 A3032 RMK A01 T10071017  RH  094%=      5-min Rain = 0
KSE1 090630Z 29007KT M01/M02 A3032 RMK A01 T10071018  RH  094%=      5-min Rain = 0
KSE1 090635Z 29006KT M01/M02 A3032 RMK A01 T10081019  RH  093%=      5-min Rain = 0
KSE1 090640Z 29005KT M01/M02 A3032 RMK A01 T10101020  RH  094%=      5-min Rain = 0
KSE1 090645Z 30005KT M01/M02 A3032 RMK A01 T10111021  RH  094%=      5-min Rain = 0
KSE1 090650Z 30006KT M01/M02 A3032 RMK A01 T10121021  RH  094%=      5-min Rain = 0
KSE1 090655Z 30007KT M01/M02 A3032 RMK A01 T10111020  RH  094%=      5-min Rain = 0
KSE1 090700Z 30007KT M01/M02 A3032 RMK A01 T10101020  RH  094%=      5-min Rain = 0
KSE1 090705Z 29007KT M01/M02 A3032 RMK A01 T10111021  RH  094%=      5-min Rain = 0
KSE1 090710Z 29008KT M01/M02 A3032 RMK A01 T10111021  RH  094%=      5-min Rain = 0
KSE1 090715Z 29007KT M01/M02 A3032 RMK A01 T10111022  RH  094%=      5-min Rain = 0
KSE1 090720Z 30007KT M01/M02 A3032 RMK A01 T10121023  RH  093%=      5-min Rain = 0
KSE1 090725Z 29007KT M01/M02 A3032 RMK A01 T10121023  RH  093%=      5-min Rain = 0
KSE1 090730Z 30006KT M01/M02 A3032 RMK A01 T10131024  RH  093%=      5-min Rain = 0
KSE1 090735Z 30006KT M01/M02 A3032 RMK A01 T10141024  RH  093%=      5-min Rain = 0
KSE1 090740Z 30007KT M01/M02 A3032 RMK A01 T10131024  RH  093%=      5-min Rain = 0
KSE1 090745Z 30007KT M01/M02 A3032 RMK A01 T10131024  RH  093%=      5-min Rain = 0
KSE1 090750Z 30007KT M01/M03 A3032 RMK A01 T10131025  RH  092%=      5-min Rain = 0
KSE1 090755Z 30006KT M01/M03 A3032 RMK A01 T10141026  RH  092%=      5-min Rain = 0
KSE1 090800Z 31006KT M01/M03 A3031 RMK A01 T10141026  RH  092%=      5-min Rain = 0
KSE1 090805Z 30006KT M02/M03 A3032 RMK A01 T10151027  RH  092%=      5-min Rain = 0
KSE1 090810Z 30006KT M01/M03 A3032 RMK A01 T10141026  RH  092%=      5-min Rain = 0
KSE1 090815Z 31006KT M02/M03 A3032 RMK A01 T10151027  RH  092%=      5-min Rain = 0
KSE1 090820Z 30006KT M02/M03 A3032 RMK A01 T10161029  RH  092%=      5-min Rain = 0
KSE1 090825Z 30006KT M02/M03 A3032 RMK A01 T10171029  RH  092%=      5-min Rain = 0
KSE1 090830Z 30006KT M02/M03 A3032 RMK A01 T10171029  RH  092%=      5-min Rain = 0
KSE1 090835Z 30006KT M02/M03 A3032 RMK A01 T10181030  RH  092%=      5-min Rain = 0
KSE1 090840Z 30007KT M02/M03 A3033 RMK A01 T10181029  RH  093%=      5-min Rain = 0
KSE1 090845Z 30007KT M02/M03 A3033 RMK A01 T10161028  RH  092%=      5-min Rain = 0
KSE1 090850Z 30007KT M02/M03 A3033 RMK A01 T10171029  RH  092%=      5-min Rain = 0
KSE1 090855Z 30007KT M02/M03 A3033 RMK A01 T10171030  RH  091%=      5-min Rain = 0
KSE1 090900Z 30007KT M02/M03 A3033 RMK A01 T10171030  RH  091%=      5-min Rain = 0
KSE1 090905Z 30007KT M02/M03 A3033 RMK A01 T10171031  RH  091%=      5-min Rain = 0
KSE1 090910Z 30008KT M02/M03 A3033 RMK A01 T10181032  RH  090%=      5-min Rain = 0
KSE1 090915Z 30008KT M02/M03 A3033 RMK A01 T10181033  RH  090%=      5-min Rain = 0
KSE1 090920Z 30008KT M02/M03 A3032 RMK A01 T10171034  RH  089%=      5-min Rain = 0
KSE1 090925Z 31008KT M02/M04 A3032 RMK A01 T10181035  RH  089%=      5-min Rain = 0
KSE1 090930Z 31008KT M02/M04 A3032 RMK A01 T10191035  RH  089%=      5-min Rain = 0
KSE1 090935Z 32008KT M02/M04 A3032 RMK A01 T10191035  RH  089%=      5-min Rain = 0
KSE1 090940Z 31008KT M02/M04 A3032 RMK A01 T10181036  RH  088%=      5-min Rain = 0
KSE1 090945Z 31008KT M02/M04 A3032 RMK A01 T10181037  RH  087%=      5-min Rain = 0
KSE1 090950Z 32008KT M02/M04 A3032 RMK A01 T10181039  RH  086%=      5-min Rain = 0
KSE1 090955Z 32008KT M02/M04 A3031 RMK A01 T10191040  RH  086%=      5-min Rain = 0
KSE1 091000Z 32008KT M02/M04 A3031 RMK A01 T10191040  RH  086%=      5-min Rain = 0
KSE1 091005Z 31008KT M02/M04 A3031 RMK A01 T10191041  RH  085%=      5-min Rain = 0
KSE1 091010Z 31008KT M02/M04 A3031 RMK A01 T10201042  RH  086%=      5-min Rain = 0
KSE1 091015Z 32008KT M02/M04 A3031 RMK A01 T10211042  RH  086%=      5-min Rain = 0
KSE1 091020Z 31008KT M02/M04 A3032 RMK A01 T10211042  RH  086%=      5-min Rain = 0
KSE1 091025Z 30008KT M02/M04 A3032 RMK A01 T10211042  RH  086%=      5-min Rain = 0
KSE1 091030Z 31008KT M02/M04 A3032 RMK A01 T10211042  RH  086%=      5-min Rain = 0
KSE1 091035Z 31008KT M02/M04 A3032 RMK A01 T10201041  RH  086%=      5-min Rain = 0
KSE1 091040Z 31007KT M02/M04 A3032 RMK A01 T10201041  RH  086%=      5-min Rain = 0
KSE1 091045Z 31008KT M02/M04 A3032 RMK A01 T10191042  RH  085%=      5-min Rain = 0
KSE1 091050Z 31008KT M02/M04 A3032 RMK A01 T10191043  RH  084%=      5-min Rain = 0
KSE1 091055Z 31007KT M02/M04 A3032 RMK A01 T10191044  RH  084%=      5-min Rain = 0
KSE1 091100Z 31008KT M02/M04 A3032 RMK A01 T10191044  RH  083%=      5-min Rain = 0
KSE1 091105Z 30007KT M02/M05 A3032 RMK A01 T10201045  RH  083%=      5-min Rain = 0
KSE1 091110Z 30008KT M02/M05 A3033 RMK A01 T10201045  RH  084%=      5-min Rain = 0
KSE1 091115Z 31008KT M02/M05 A3033 RMK A01 T10201045  RH  084%=      5-min Rain = 0
KSE1 091120Z 31008KT M02/M05 A3033 RMK A01 T10201045  RH  083%=      5-min Rain = 0
KSE1 091125Z 31008KT M02/M05 A3033 RMK A01 T10201045  RH  083%=      5-min Rain = 0
KSE1 091130Z 32008KT M02/M05 A3033 RMK A01 T10201045  RH  083%=      5-min Rain = 0
KSE1 091135Z 32008KT M02/M04 A3033 RMK A01 T10191044  RH  083%=      5-min Rain = 0
KSE1 091140Z 32008KT M02/M04 A3033 RMK A01 T10181044  RH  083%=      5-min Rain = 0
KSE1 091145Z 32008KT M02/M04 A3034 RMK A01 T10171043  RH  082%=      5-min Rain = 0
KSE1 091150Z 32007KT M02/M04 A3034 RMK A01 T10171042  RH  083%=      5-min Rain = 0
KSE1 091155Z 32007KT M02/M04 A3034 RMK A01 T10171043  RH  083%=      5-min Rain = 0
KSE1 091200Z 33007KT M02/M04 A3034 RMK A01 T10171043  RH  083%=      5-min Rain = 0
KSE1 091205Z 32007KT M02/M04 A3034 RMK A01 T10161042  RH  083%=      5-min Rain = 0
KSE1 091210Z 31007KT M02/M04 A3034 RMK A01 T10161042  RH  083%=      5-min Rain = 0
KSE1 091215Z 31008KT M02/M04 A3035 RMK A01 T10161042  RH  083%=      5-min Rain = 0
KSE1 091220Z 31008KT M02/M04 A3035 RMK A01 T10161042  RH  083%=      5-min Rain = 0
KSE1 091225Z 30008KT M02/M04 A3035 RMK A01 T10161041  RH  083%=      5-min Rain = 0
KSE1 091230Z 30008KT M02/M04 A3035 RMK A01 T10151041  RH  083%=      5-min Rain = 0
KSE1 091235Z 30007KT M01/M04 A3035 RMK A01 T10141041  RH  082%=      5-min Rain = 0
KSE1 091240Z 30007KT M01/M04 A3035 RMK A01 T10141040  RH  083%=      5-min Rain = 0
KSE1 091245Z 30006KT M01/M04 A3036 RMK A01 T10141040  RH  083%=      5-min Rain = 0
KSE1 091250Z 30006KT M01/M04 A3036 RMK A01 T10141040  RH  082%=      5-min Rain = 0
KSE1 091255Z 30006KT M01/M04 A3036 RMK A01 T10141040  RH  083%=      5-min Rain = 0
KSE1 091300Z 30007KT M01/M04 A3036 RMK A01 T10141040  RH  082%=      5-min Rain = 0
KSE1 091305Z 30006KT M01/M04 A3036 RMK A01 T10141040  RH  083%=      5-min Rain = 0
KSE1 091310Z 30008KT M01/M04 A3037 RMK A01 T10141039  RH  084%=      5-min Rain = 0
KSE1 091315Z 30007KT M01/M04 A3037 RMK A01 T10141039  RH  084%=      5-min Rain = 0
KSE1 091320Z 29008KT M02/M04 A3037 RMK A01 T10151040  RH  084%=      5-min Rain = 0
KSE1 091325Z 29008KT M02/M04 A3037 RMK A01 T10161041  RH  083%=      5-min Rain = 0
KSE1 091330Z 30007KT M02/M04 A3037 RMK A01 T10161042  RH  083%=      5-min Rain = 0
KSE1 091335Z 30007KT M02/M04 A3037 RMK A01 T10181042  RH  084%=      5-min Rain = 0
KSE1 091340Z 30008KT M02/M04 A3037 RMK A01 T10191044  RH  083%=      5-min Rain = 0
KSE1 091345Z 30007KT M02/M05 A3037 RMK A01 T10201045  RH  084%=      5-min Rain = 0
KSE1 091350Z 30008KT M02/M05 A3037 RMK A01 T10211045  RH  084%=      5-min Rain = 0
KSE1 091355Z 30008KT M02/M05 A3038 RMK A01 T10221046  RH  084%=      5-min Rain = 0
KSE1 091400Z 30007KT M02/M05 A3038 RMK A01 T10231046  RH  084%=      5-min Rain = 0
KSE1 091405Z 30008KT M02/M05 A3037 RMK A01 T10241047  RH  084%=      5-min Rain = 0
KSE1 091410Z 30007KT M02/M05 A3038 RMK A01 T10241047  RH  084%=      5-min Rain = 0
KSE1 091415Z 30007KT M02/M05 A3038 RMK A01 T10231048  RH  084%=      5-min Rain = 0
KSE1 091420Z 30006KT M02/M05 A3038 RMK A01 T10221047  RH  083%=      5-min Rain = 0
KSE1 091425Z 30007KT M02/M05 A3039 RMK A01 T10221047  RH  084%=      5-min Rain = 0
KSE1 091430Z 30007KT M02/M05 A3039 RMK A01 T10221046  RH  084%=      5-min Rain = 0
KSE1 091435Z 30007KT M02/M05 A3039 RMK A01 T10221047  RH  083%=      5-min Rain = 0
KSE1 091440Z 31007KT M02/M05 A3039 RMK A01 T10201046  RH  083%=      5-min Rain = 0
KSE1 091445Z 31008KT M02/M05 A3039 RMK A01 T10191048  RH  081%=      5-min Rain = 0
KSE1 091450Z 31008KT M02/M05 A3039 RMK A01 T10191049  RH  081%=      5-min Rain = 0
KSE1 091455Z 31007KT M02/M05 A3039 RMK A01 T10181047  RH  081%=      5-min Rain = 0
KSE1 091500Z 31006KT M02/M05 A3039 RMK A01 T10171049  RH  079%=      5-min Rain = 0
KSE1 091505Z 31004KT M02/M05 A304 RMK A01 T10151046  RH  080%=      5-min Rain = 0
KSE1 091510Z 30004KT M01/M05 A304 RMK A01 T10131045  RH  079%=      5-min Rain = 0
KSE1 091515Z 29003KT M01/M04 A304 RMK A01 T10111044  RH  079%=      5-min Rain = 0
KSE1 091520Z 29003KT M01/M04 A3041 RMK A01 T10101042  RH  079%=      5-min Rain = 0
KSE1 091525Z 29004KT M01/M04 A3041 RMK A01 T10111042  RH  080%=      5-min Rain = 0
KSE1 091530Z 28005KT M01/M04 A3041 RMK A01 T10111041  RH  081%=      5-min Rain = 0
KSE1 091535Z 28005KT M01/M04 A3041 RMK A01 T10111040  RH  081%=      5-min Rain = 0
KSE1 091540Z 30006KT M01/M04 A3041 RMK A01 T10091037  RH  082%=      5-min Rain = 0
KSE1 091545Z 31006KT M01/M04 A3041 RMK A01 T10051036  RH  080%=      5-min Rain = 0
KSE1 091550Z 32006KT M00/M04 A3042 RMK A01 T10041035  RH  079%=      5-min Rain = 0
KSE1 091555Z 31008KT M00/M03 A3042 RMK A01 T10021034  RH  079%=      5-min Rain = 0
KSE1 091600Z 31007KT M00/M03 A3042 RMK A01 T10011032  RH  080%=      5-min Rain = 0
KSE1 091605Z 32008KT 00/M03 A3042 RMK A01 T00011031  RH  080%=      5-min Rain = 0
KSE1 091610Z 32008KT 00/M03 A3042 RMK A01 T00021030  RH  080%=      5-min Rain = 0
KSE1 091615Z 32008KT 00/M03 A3042 RMK A01 T00031030  RH  079%=      5-min Rain = 0
KSE1 091620Z 32007KT 00/M03 A3042 RMK A01 T00041029  RH  079%=      5-min Rain = 0
KSE1 091625Z 32007KT 01/M03 A3043 RMK A01 T00051030  RH  078%=      5-min Rain = 0
KSE1 091630Z 31007KT 01/M03 A3043 RMK A01 T00071029  RH  078%=      5-min Rain = 0
KSE1 091635Z 31006KT 01/M03 A3043 RMK A01 T00091026  RH  078%=      5-min Rain = 0
KSE1 091640Z 31007KT 01/M03 A3042 RMK A01 T00101026  RH  077%=      5-min Rain = 0
KSE1 091645Z 31007KT 01/M02 A3043 RMK A01 T00131023  RH  078%=      5-min Rain = 0
KSE1 091650Z 30007KT 01/M02 A3042 RMK A01 T00141024  RH  077%=      5-min Rain = 0
KSE1 091655Z 31007KT 02/M02 A3042 RMK A01 T00161021  RH  077%=      5-min Rain = 0
KSE1 091700Z 31008KT 02/M02 A3042 RMK A01 T00181023  RH  075%=      5-min Rain = 0
KSE1 091705Z 31008KT 02/M03 A3042 RMK A01 T00181025  RH  074%=      5-min Rain = 0
KSE1 091710Z 31007KT 02/M02 A3042 RMK A01 T00191024  RH  074%=      5-min Rain = 0
KSE1 091715Z 30007KT 02/M02 A3042 RMK A01 T00211021  RH  075%=      5-min Rain = 0
KSE1 091720Z 31007KT 02/M02 A3042 RMK A01 T00231019  RH  075%=      5-min Rain = 0
KSE1 091725Z 31007KT 03/M02 A3042 RMK A01 T00251019  RH  074%=      5-min Rain = 0
KSE1 091730Z 32007KT 03/M02 A3041 RMK A01 T00261019  RH  073%=      5-min Rain = 0
KSE1 091735Z 32008KT 03/M02 A3041 RMK A01 T00261021  RH  072%=      5-min Rain = 0
KSE1 091740Z 33007KT 03/M02 A3041 RMK A01 T00281020  RH  071%=      5-min Rain = 0
KSE1 091745Z 31007KT 03/M02 A3041 RMK A01 T00291020  RH  071%=      5-min Rain = 0
KSE1 091750Z 32008KT 03/M02 A3041 RMK A01 T00291020  RH  070%=      5-min Rain = 0
KSE1 091755Z 32008KT 03/M02 A3041 RMK A01 T00311020  RH  070%=      5-min Rain = 0
KSE1 091800Z 32008KT 03/M02 A304 RMK A01 T00321019  RH  070%=      5-min Rain = 0
KSE1 091805Z 32007KT 03/M02 A304 RMK A01 T00341017  RH  070%=      5-min Rain = 0
KSE1 091810Z 32007KT 03/M02 A304 RMK A01 T00341020  RH  068%=      5-min Rain = 0
KSE1 091815Z 32007KT 04/M02 A304 RMK A01 T00351018  RH  069%=      5-min Rain = 0
KSE1 091820Z 32007KT 04/M02 A3039 RMK A01 T00351020  RH  068%=      5-min Rain = 0
KSE1 091825Z 33007KT 04/M02 A3039 RMK A01 T00361019  RH  068%=      5-min Rain = 0
KSE1 091830Z 34007KT 04/M02 A3039 RMK A01 T00371021  RH  066%=      5-min Rain = 0
KSE1 091835Z 32008KT 04/M02 A3039 RMK A01 T00381019  RH  067%=      5-min Rain = 0
KSE1 091840Z 32007KT 04/M02 A3038 RMK A01 T00371021  RH  066%=      5-min Rain = 0
KSE1 091845Z 31007KT 04/M02 A3038 RMK A01 T00391019  RH  067%=      5-min Rain = 0
KSE1 091850Z 34006KT 04/M02 A3038 RMK A01 T00401017  RH  067%=      5-min Rain = 0
KSE1 091855Z 32008KT 04/M02 A3037 RMK A01 T00411016  RH  067%=      5-min Rain = 0
KSE1 091900Z 31007KT 04/M02 A3037 RMK A01 T00421016  RH  066%=      5-min Rain = 0
KSE1 091905Z 32006KT 05/M01 A3037 RMK A01 T00451012  RH  067%=      5-min Rain = 0
KSE1 091910Z 31006KT 05/M02 A3037 RMK A01 T00451016  RH  065%=      5-min Rain = 0
KSE1 091915Z 30007KT 04/M02 A3037 RMK A01 T00441016  RH  066%=      5-min Rain = 0
KSE1 091920Z 30006KT 05/M01 A3037 RMK A01 T00461013  RH  066%=      5-min Rain = 0
KSE1 091925Z 30007KT 05/M01 A3037 RMK A01 T00481012  RH  066%=      5-min Rain = 0
KSE1 091930Z 31008KT 05/M01 A3037 RMK A01 T00491012  RH  065%=      5-min Rain = 0
KSE1 091935Z 31007KT 05/M02 A3037 RMK A01 T00481018  RH  063%=      5-min Rain = 0
KSE1 091940Z 30007KT 05/M02 A3036 RMK A01 T00491017  RH  063%=      5-min Rain = 0
KSE1 091945Z 31007KT 05/M01 A3036 RMK A01 T00511013  RH  064%=      5-min Rain = 0
KSE1 091950Z 31007KT 05/M02 A3036 RMK A01 T00511016  RH  063%=      5-min Rain = 0
KSE1 091955Z 31007KT 05/M02 A3036 RMK A01 T00521018  RH  061%=      5-min Rain = 0
KSE1 092000Z 30006KT 06/M01 A3036 RMK A01 T00551014  RH  062%=      5-min Rain = 0
KSE1 092005Z 29006KT 06/M01 A3036 RMK A01 T00571009  RH  063%=      5-min Rain = 0
KSE1 092010Z 30007KT 05/M02 A3035 RMK A01 T00541022  RH  058%=      5-min Rain = 0
KSE1 092015Z 32007KT 06/M02 A3035 RMK A01 T00561017  RH  060%=      5-min Rain = 0
KSE1 092020Z 31006KT 06/M02 A3035 RMK A01 T00571019  RH  058%=      5-min Rain = 0
KSE1 092025Z 30007KT 06/M02 A3035 RMK A01 T00591018  RH  058%=      5-min Rain = 0
KSE1 092030Z 30006KT 06/M02 A3035 RMK A01 T00601015  RH  059%=      5-min Rain = 0
KSE1 092035Z 30006KT 06/M01 A3034 RMK A01 T00621013  RH  059%=      5-min Rain = 0
KSE1 092040Z 30006KT 06/M02 A3034 RMK A01 T00621018  RH  057%=      5-min Rain = 0
KSE1 092045Z 30005KT 06/M02 A3034 RMK A01 T00631019  RH  056%=      5-min Rain = 0
KSE1 092050Z 29008KT 07/M02 A3035 RMK A01 T00651018  RH  056%=      5-min Rain = 0
KSE1 092055Z 29006KT 07/M02 A3035 RMK A01 T00651019  RH  056%=      5-min Rain = 0
KSE1 092100Z 29007KT 07/M02 A3035 RMK A01 T00651020  RH  055%=      5-min Rain = 0
KSE1 092105Z 29007KT 07/M02 A3035 RMK A01 T00661017  RH  056%=      5-min Rain = 0
KSE1 092110Z 30007KT 07/M02 A3035 RMK A01 T00681016  RH  055%=      5-min Rain = 0
KSE1 092115Z 29008KT 07/M02 A3035 RMK A01 T00671021  RH  054%=      5-min Rain = 0
KSE1 092120Z 30007KT 07/M02 A3035 RMK A01 T00691017  RH  055%=      5-min Rain = 0
KSE1 092125Z 30007KT 07/M02 A3035 RMK A01 T00681023  RH  053%=      5-min Rain = 0
KSE1 092130Z 31007KT 07/M02 A3034 RMK A01 T00701020  RH  053%=      5-min Rain = 0
KSE1 092135Z 32006KT 07/M02 A3034 RMK A01 T00721020  RH  053%=      5-min Rain = 0
KSE1 092140Z 31008KT 07/M02 A3035 RMK A01 T00711023  RH  051%=      5-min Rain = 0
KSE1 092145Z 30008KT 07/M02 A3035 RMK A01 T00721020  RH  052%=      5-min Rain = 0
KSE1 092150Z 31009KT 07/M02 A3035 RMK A01 T00721022  RH  052%=      5-min Rain = 0
KSE1 092155Z 31009KT 07/M02 A3035 RMK A01 T00731019  RH  053%=      5-min Rain = 0
KSE1 092200Z 30009KT 07/M02 A3035 RMK A01 T00731021  RH  052%=      5-min Rain = 0
KSE1 092205Z 30008KT 07/M02 A3035 RMK A01 T00741019  RH  052%=      5-min Rain = 0
KSE1 092210Z 30008KT 07/M02 A3035 RMK A01 T00741022  RH  051%=      5-min Rain = 0
KSE1 092215Z 30007KT 07/M03 A3034 RMK A01 T00731025  RH  050%=      5-min Rain = 0
KSE1 092220Z 31008KT 07/M02 A3034 RMK A01 T00731024  RH  050%=      5-min Rain = 0
KSE1 092225Z 30007KT 07/M02 A3034 RMK A01 T00731023  RH  051%=      5-min Rain = 0
KSE1 092230Z 29007KT 07/M02 A3035 RMK A01 T00731019  RH  052%=      5-min Rain = 0
KSE1 092235Z 30008KT 07/M02 A3035 RMK A01 T00731020  RH  052%=      5-min Rain = 0
KSE1 092240Z 30007KT 07/M02 A3035 RMK A01 T00721018  RH  053%=      5-min Rain = 0
KSE1 092245Z 30006KT 07/M01 A3035 RMK A01 T00711014  RH  055%=      5-min Rain = 0
KSE1 092250Z 30007KT 07/M02 A3035 RMK A01 T00711017  RH  054%=      5-min Rain = 0
KSE1 092255Z 31006KT 07/M02 A3035 RMK A01 T00691015  RH  056%=      5-min Rain = 0
KSE1 092300Z 30005KT 07/M01 A3035 RMK A01 T00681008  RH  059%=      5-min Rain = 0
KSE1 092305Z 30005KT 07/M01 A3035 RMK A01 T00651007  RH  061%=      5-min Rain = 0
KSE1 092310Z 30005KT 06/M01 A3035 RMK A01 T00631006  RH  062%=      5-min Rain = 0
KSE1 092315Z 30004KT 06/M01 A3035 RMK A01 T00611006  RH  063%=      5-min Rain = 0
KSE1 092320Z 31004KT 06/M01 A3035 RMK A01 T00591005  RH  064%=      5-min Rain = 0
KSE1 092325Z 30004KT 06/M00 A3034 RMK A01 T00571003  RH  066%=      5-min Rain = 0
KSE1 092330Z 30003KT 05/M00 A3034 RMK A01 T00541003  RH  067%=      5-min Rain = 0
KSE1 092335Z 30003KT 05/00 A3034 RMK A01 T00500002  RH  072%=      5-min Rain = 0
KSE1 092340Z 30003KT 05/01 A3034 RMK A01 T00470007  RH  076%=      5-min Rain = 0
KSE1 092345Z 30003KT 04/01 A3034 RMK A01 T00410008  RH  080%=      5-min Rain = 0
KSE1 092350Z 27002KT 04/00 A3034 RMK A01 T00430003  RH  077%=      5-min Rain = 0
KSE1 092355Z 25002KT 04/M00 A3034 RMK A01 T00421001  RH  074%=      5-min Rain = 0
KSE1 100000Z 25001KT 04/M00 A3035 RMK A01 T00401003  RH  075%=      5-min Rain = 0
KSE1 100005Z 26001KT 04/00 A3035 RMK A01 T00370002  RH  079%=      5-min Rain = 0
KSE1 100010Z 26001KT 04/01 A3035 RMK A01 T00390008  RH  081%=      5-min Rain = 0
KSE1 100015Z 27002KT 04/01 A3035 RMK A01 T00350008  RH  084%=      5-min Rain = 0
KSE1 100020Z 28003KT 03/01 A3036 RMK A01 T00320009  RH  085%=      5-min Rain = 0
KSE1 100025Z 28003KT 03/01 A3036 RMK A01 T00310006  RH  085%=      5-min Rain = 0
KSE1 100030Z 24002KT 03/01 A3036 RMK A01 T00300007  RH  086%=      5-min Rain = 0
KSE1 100035Z 24002KT 03/01 A3036 RMK A01 T00310009  RH  087%=      5-min Rain = 0
KSE1 100040Z 22002KT 03/01 A3036 RMK A01 T00310010  RH  087%=      5-min Rain = 0
KSE1 100045Z 24002KT 03/00 A3036 RMK A01 T00270002  RH  084%=      5-min Rain = 0
KSE1 100050Z 24003KT 03/00 A3036 RMK A01 T00270001  RH  084%=      5-min Rain = 0
KSE1 100055Z 25003KT 03/M00 A3036 RMK A01 T00251002  RH  083%=      5-min Rain = 0
KSE1 100100Z 25001KT 02/M00 A3037 RMK A01 T00231004  RH  083%=      5-min Rain = 0
KSE1 100105Z 29001KT 02/00 A3037 RMK A01 T002300-0  RH  085%=      5-min Rain = 0
KSE1 100110Z 28002KT 03/00 A3037 RMK A01 T00250004  RH  087%=      5-min Rain = 0
KSE1 100115Z 27002KT 02/00 A3037 RMK A01 T00240002  RH  086%=      5-min Rain = 0
KSE1 100120Z 27003KT 02/00 A3037 RMK A01 T00230000  RH  086%=      5-min Rain = 0
KSE1 100125Z 27004KT 02/M00 A3037 RMK A01 T00221001  RH  086%=      5-min Rain = 0
KSE1 100130Z 27005KT 02/M00 A3037 RMK A01 T00221002  RH  086%=      5-min Rain = 0
KSE1 100135Z 27005KT 02/M00 A3037 RMK A01 T00211002  RH  086%=      5-min Rain = 0
KSE1 100140Z 27005KT 02/M01 A3037 RMK A01 T00171005  RH  086%=      5-min Rain = 0
KSE1 100145Z 26005KT 01/M01 A3037 RMK A01 T00131008  RH  087%=      5-min Rain = 0
KSE1 100150Z 26005KT 01/M01 A3037 RMK A01 T00111008  RH  088%=      5-min Rain = 0
KSE1 100155Z 26005KT 01/M01 A3037 RMK A01 T00111007  RH  089%=      5-min Rain = 0
KSE1 100200Z 26005KT 01/M01 A3037 RMK A01 T00101007  RH  089%=      5-min Rain = 0
KSE1 100205Z 26005KT 01/M01 A3037 RMK A01 T00101007  RH  089%=      5-min Rain = 0
KSE1 100210Z 27004KT 01/M00 A3037 RMK A01 T00121004  RH  090%=      5-min Rain = 0
KSE1 100215Z 27004KT 01/M01 A3037 RMK A01 T00121005  RH  090%=      5-min Rain = 0
KSE1 100220Z 25005KT 01/M01 A3037 RMK A01 T00121005  RH  089%=      5-min Rain = 0
KSE1 100225Z 24005KT 01/M01 A3037 RMK A01 T00091010  RH  088%=      5-min Rain = 0
KSE1 100230Z 24004KT 01/M01 A3037 RMK A01 T00071011  RH  089%=      5-min Rain = 0
KSE1 100235Z 24004KT 01/M01 A3037 RMK A01 T00081009  RH  089%=      5-min Rain = 0
KSE1 100240Z 24005KT 01/M01 A3037 RMK A01 T00081011  RH  088%=      5-min Rain = 0
KSE1 100245Z 25005KT 01/M01 A3037 RMK A01 T00081013  RH  087%=      5-min Rain = 0
KSE1 100250Z 25005KT 01/M01 A3037 RMK A01 T00071014  RH  086%=      5-min Rain = 0
KSE1 100255Z 26004KT 01/M01 A3037 RMK A01 T00071014  RH  087%=      5-min Rain = 0
KSE1 100300Z 26003KT 01/M01 A3037 RMK A01 T00091009  RH  088%=      5-min Rain = 0
KSE1 100305Z 25003KT 01/M01 A3037 RMK A01 T00091009  RH  089%=      5-min Rain = 0
KSE1 100310Z 27003KT 01/M01 A3038 RMK A01 T00101009  RH  088%=      5-min Rain = 0
KSE1 100315Z 27003KT 01/M01 A3037 RMK A01 T00111008  RH  088%=      5-min Rain = 0
KSE1 100320Z 25004KT 01/M01 A3037 RMK A01 T00111010  RH  087%=      5-min Rain = 0
KSE1 100325Z 25004KT 01/M01 A3037 RMK A01 T00081014  RH  086%=      5-min Rain = 0
KSE1 100330Z 23002KT 01/M01 A3037 RMK A01 T00071014  RH  087%=      5-min Rain = 0
KSE1 100335Z 21003KT 01/M01 A3037 RMK A01 T00061013  RH  088%=      5-min Rain = 0
KSE1 100340Z 22004KT 01/M01 A3037 RMK A01 T00051014  RH  088%=      5-min Rain = 0
KSE1 100345Z 21003KT 00/M01 A3037 RMK A01 T00041014  RH  088%=      5-min Rain = 0
KSE1 100350Z 23003KT 00/M02 A3037 RMK A01 T00021015  RH  089%=      5-min Rain = 0
KSE1 100355Z 25004KT M00/M02 A3037 RMK A01 T10011018  RH  089%=      5-min Rain = 0
KSE1 100400Z 24005KT M00/M02 A3037 RMK A01 T10041020  RH  090%=      5-min Rain = 0
KSE1 100405Z 25005KT M00/M02 A3037 RMK A01 T10041020  RH  090%=      5-min Rain = 0
KSE1 100410Z 26005KT M01/M02 A3038 RMK A01 T10051021  RH  090%=      5-min Rain = 0
KSE1 100415Z 25005KT M01/M02 A3038 RMK A01 T10051021  RH  090%=      5-min Rain = 0
KSE1 100420Z 25004KT M01/M02 A3038 RMK A01 T10061021  RH  090%=      5-min Rain = 0
KSE1 100425Z 25004KT M01/M02 A3038 RMK A01 T10091024  RH  090%=      5-min Rain = 0
KSE1 100430Z 26004KT M01/M02 A3038 RMK A01 T10081022  RH  091%=      5-min Rain = 0
KSE1 100435Z 26004KT M01/M02 A3038 RMK A01 T10091024  RH  090%=      5-min Rain = 0
KSE1 100440Z 26004KT M01/M03 A3038 RMK A01 T10101025  RH  090%=      5-min Rain = 0
KSE1 100445Z 25004KT M01/M02 A3038 RMK A01 T10071022  RH  090%=      5-min Rain = 0
KSE1 100450Z 24003KT M01/M02 A3038 RMK A01 T10051022  RH  090%=      5-min Rain = 0
KSE1 100455Z 24003KT M01/M02 A3037 RMK A01 T10051021  RH  089%=      5-min Rain = 0
KSE1 100500Z 24003KT M01/M02 A3038 RMK A01 T10061023  RH  089%=      5-min Rain = 0
KSE1 100505Z 23003KT M01/M02 A3037 RMK A01 T10071024  RH  089%=      5-min Rain = 0
KSE1 100510Z 23002KT M00/M02 A3037 RMK A01 T10041020  RH  090%=      5-min Rain = 0
KSE1 100515Z 22002KT M01/M02 A3037 RMK A01 T10061023  RH  089%=      5-min Rain = 0
KSE1 100520Z 22003KT M01/M02 A3037 RMK A01 T10071023  RH  090%=      5-min Rain = 0
KSE1 100525Z 24003KT M01/M02 A3037 RMK A01 T10061021  RH  090%=      5-min Rain = 0
KSE1 100530Z 25004KT M01/M02 A3037 RMK A01 T10081023  RH  090%=      5-min Rain = 0
KSE1 100535Z 25004KT M01/M03 A3037 RMK A01 T10121028  RH  090%=      5-min Rain = 0
KSE1 100540Z 26004KT M01/M03 A3037 RMK A01 T10121026  RH  091%=      5-min Rain = 0
KSE1 100545Z 25005KT M01/M03 A3037 RMK A01 T10131027  RH  091%=      5-min Rain = 0
KSE1 100550Z 25004KT M01/M03 A3037 RMK A01 T10141028  RH  091%=      5-min Rain = 0
KSE1 100555Z 25003KT M01/M02 A3037 RMK A01 T10111024  RH  092%=      5-min Rain = 0

Page generated in 0.0261 seconds.